Time,TemperatureF,DewpointF,PressureIn,WindDirection,WindDirectionDegrees,WindSpeedMPH,WindSpeedGustMPH,Humidity,HourlyPrecipIn,Conditions,Clouds,dailyrainin,SolarRadiationWatts/m^2,SoftwareType,DateUTC
2013-10-10 00:01:00,50.0,45.0,-100.00,East,82,0.0,8.0,84,0.00,,,0.00,0.000000,,2013-10-10 05:01:00,
2013-10-10 00:43:00,50.0,45.0,-100.00,East,82,0.0,8.0,84,0.00,,,0.00,0.000000,,2013-10-10 05:43:00,
2013-10-10 00:53:00,50.0,45.0,-100.00,East,82,0.0,8.0,84,0.00,,,0.00,0.000000,,2013-10-10 05:53:00,
2013-10-10 09:01:00,54.0,45.0,-100.00,SW,222,3.0,6.0,72,-99.99,,,0.00,174.000000,,2013-10-10 14:01:00,
2013-10-10 09:42:00,54.0,45.0,-100.00,SW,222,3.0,6.0,72,-99.99,,,0.00,174.000000,,2013-10-10 14:42:00,
2013-10-10 09:52:00,54.0,45.0,-100.00,SW,222,3.0,6.0,72,-99.99,,,0.00,174.000000,,2013-10-10 14:52:00,
2013-10-10 10:01:00,60.0,46.0,-100.00,SSW,211,5.0,9.0,60,0.00,,,0.00,313.000000,,2013-10-10 15:01:00,
2013-10-10 10:43:00,60.0,46.0,-100.00,SSW,211,5.0,9.0,60,0.00,,,0.00,313.000000,,2013-10-10 15:43:00,
2013-10-10 10:54:00,60.0,46.0,-100.00,SSW,211,5.0,9.0,60,0.00,,,0.00,313.000000,,2013-10-10 15:54:00,
2013-10-10 11:01:00,66.0,46.0,-100.00,SSW,203,5.0,11.0,48,0.00,,,0.00,410.000000,,2013-10-10 16:01:00,
2013-10-10 11:23:00,66.0,46.0,-100.00,SSW,203,5.0,11.0,48,0.00,,,0.00,410.000000,,2013-10-10 16:23:00,
2013-10-10 11:33:00,66.0,46.0,-100.00,SSW,203,5.0,11.0,48,0.00,,,0.00,410.000000,,2013-10-10 16:33:00,
2013-10-10 11:42:00,66.0,46.0,-100.00,SSW,203,5.0,11.0,48,0.00,,,0.00,410.000000,,2013-10-10 16:42:00,
2013-10-10 11:53:00,66.0,46.0,-100.00,SSW,203,5.0,11.0,48,0.00,,,0.00,410.000000,,2013-10-10 16:53:00,
2013-10-10 12:01:00,68.0,44.0,-100.00,South,176,7.0,13.0,42,0.00,,,0.00,478.000000,,2013-10-10 17:01:00,
2013-10-10 12:23:00,68.0,44.0,-100.00,South,176,7.0,13.0,42,0.00,,,0.00,478.000000,,2013-10-10 17:23:00,
2013-10-10 12:33:00,68.0,44.0,-100.00,South,176,7.0,13.0,42,0.00,,,0.00,478.000000,,2013-10-10 17:33:00,
2013-10-10 12:42:00,68.0,44.0,-100.00,South,176,7.0,13.0,42,0.00,,,0.00,478.000000,,2013-10-10 17:42:00,
2013-10-10 12:53:00,68.0,44.0,-100.00,South,176,7.0,13.0,42,0.00,,,0.00,478.000000,,2013-10-10 17:53:00,
2013-10-10 13:01:00,70.0,41.0,-100.00,SW,214,9.0,15.0,35,0.00,,,0.00,560.000000,,2013-10-10 18:01:00,
2013-10-10 13:42:00,70.0,41.0,-100.00,SW,214,9.0,15.0,35,0.00,,,0.00,560.000000,,2013-10-10 18:42:00,
2013-10-10 13:52:00,70.0,41.0,-100.00,SW,214,9.0,15.0,35,0.00,,,0.00,560.000000,,2013-10-10 18:52:00,
2013-10-10 14:01:00,69.0,39.0,-100.00,South,188,8.0,16.0,34,0.00,,,0.00,467.000000,,2013-10-10 19:01:00,
2013-10-10 14:22:00,69.0,39.0,-100.00,South,188,8.0,16.0,34,0.00,,,0.00,467.000000,,2013-10-10 19:22:00,
2013-10-10 14:32:00,69.0,39.0,-100.00,South,188,8.0,16.0,34,0.00,,,0.00,467.000000,,2013-10-10 19:32:00,
2013-10-10 14:42:00,69.0,39.0,-100.00,South,188,8.0,16.0,34,0.00,,,0.00,467.000000,,2013-10-10 19:42:00,
2013-10-10 14:53:00,69.0,39.0,-100.00,South,188,8.0,16.0,34,0.00,,,0.00,467.000000,,2013-10-10 19:53:00,
2013-10-10 15:01:00,71.0,40.0,-100.00,SSW,205,7.0,15.0,32,0.00,,,0.00,422.000000,,2013-10-10 20:01:00,
2013-10-10 15:22:00,71.0,40.0,-100.00,SSW,205,7.0,15.0,32,0.00,,,0.00,422.000000,,2013-10-10 20:22:00,
2013-10-10 15:32:00,71.0,40.0,-100.00,SSW,205,7.0,15.0,32,0.00,,,0.00,422.000000,,2013-10-10 20:32:00,
2013-10-10 15:42:00,71.0,40.0,-100.00,SSW,205,7.0,15.0,32,0.00,,,0.00,422.000000,,2013-10-10 20:42:00,
2013-10-10 15:52:00,71.0,40.0,-100.00,SSW,205,7.0,15.0,32,0.00,,,0.00,422.000000,,2013-10-10 20:52:00,
2013-10-10 16:01:00,72.0,40.0,-100.00,SSW,206,7.0,15.0,31,0.00,,,0.00,444.000000,,2013-10-10 21:01:00,
2013-10-10 16:44:00,72.0,40.0,-100.00,SSW,206,7.0,15.0,31,0.00,,,0.00,444.000000,,2013-10-10 21:44:00,
2013-10-10 16:54:00,72.0,40.0,-100.00,SSW,206,7.0,15.0,31,0.00,,,0.00,444.000000,,2013-10-10 21:54:00,
2013-10-10 17:01:00,71.0,40.0,-100.00,SSW,209,7.0,15.0,32,0.00,,,0.00,312.000000,,2013-10-10 22:01:00,
2013-10-10 17:43:00,71.0,40.0,-100.00,SSW,209,7.0,15.0,32,0.00,,,0.00,312.000000,,2013-10-10 22:43:00,
2013-10-10 17:53:00,71.0,40.0,-100.00,SSW,209,7.0,15.0,32,0.00,,,0.00,312.000000,,2013-10-10 22:53:00,
2013-10-10 18:01:00,67.0,40.0,-100.00,SSW,197,4.0,13.0,37,0.00,,,0.00,108.000000,,2013-10-10 23:01:00,
2013-10-10 18:23:00,67.0,40.0,-100.00,SSW,197,4.0,13.0,37,0.00,,,0.00,108.000000,,2013-10-10 23:23:00,
2013-10-10 18:33:00,67.0,40.0,-100.00,SSW,197,4.0,13.0,37,0.00,,,0.00,108.000000,,2013-10-10 23:33:00,
2013-10-10 18:43:00,67.0,40.0,-100.00,SSW,197,4.0,13.0,37,0.00,,,0.00,108.000000,,2013-10-10 23:43:00,
2013-10-10 18:53:00,67.0,40.0,-100.00,SSW,197,4.0,13.0,37,0.00,,,0.00,108.000000,,2013-10-10 23:53:00,
2013-10-10 19:01:00,62.0,41.0,-100.00,SSE,165,3.0,6.0,46,0.00,,,0.00,4.000000,,2013-10-11 00:01:00,
2013-10-10 19:42:00,62.0,41.0,-100.00,SSE,165,3.0,6.0,46,0.00,,,0.00,4.000000,,2013-10-11 00:42:00,
2013-10-10 19:52:00,62.0,41.0,-100.00,SSE,165,3.0,6.0,46,0.00,,,0.00,4.000000,,2013-10-11 00:52:00,
2013-10-10 20:01:00,59.0,41.0,-100.00,South,178,2.0,6.0,52,0.00,,,0.00,0.000000,,2013-10-11 01:01:00,
2013-10-10 20:42:00,59.0,41.0,-100.00,South,178,2.0,6.0,52,0.00,,,0.00,0.000000,,2013-10-11 01:42:00,
2013-10-10 20:52:00,59.0,41.0,-100.00,South,178,2.0,6.0,52,0.00,,,0.00,0.000000,,2013-10-11 01:52:00,
2013-10-10 21:01:00,58.0,42.0,-100.00,South,176,3.0,6.0,56,0.00,,,0.00,0.000000,,2013-10-11 02:01:00,
2013-10-10 21:42:00,58.0,42.0,-100.00,South,176,3.0,6.0,56,0.00,,,0.00,0.000000,,2013-10-11 02:42:00,
2013-10-10 21:52:00,58.0,42.0,-100.00,South,176,3.0,6.0,56,0.00,,,0.00,0.000000,,2013-10-11 02:52:00,
2013-10-10 22:01:00,57.0,43.0,-100.00,South,170,3.0,7.0,60,0.00,,,0.00,0.000000,,2013-10-11 03:01:00,
2013-10-10 22:45:00,57.0,43.0,-100.00,South,170,3.0,7.0,60,0.00,,,0.00,0.000000,,2013-10-11 03:45:00,
2013-10-10 22:54:00,57.0,43.0,-100.00,South,170,3.0,7.0,60,0.00,,,0.00,0.000000,,2013-10-11 03:54:00,
2013-10-10 23:01:00,56.0,44.0,-100.00,South,170,3.0,7.0,65,0.00,,,0.00,0.000000,,2013-10-11 04:01:00,
2013-10-10 23:44:00,56.0,44.0,-100.00,South,170,3.0,7.0,65,0.00,,,0.00,0.000000,,2013-10-11 04:44:00,
2013-10-10 23:53:00,56.0,44.0,-100.00,South,170,3.0,7.0,65,0.00,,,0.00,0.000000,,2013-10-11 04:53:00,